Time;durP1;ratioP1;P1;durP2;ratioP2;P2;SDS_P1;SDS_P2;PMS_P1;PMS_P2;Temp;Humidity;BMP_temperature;BMP_pressure;BME280_temperature;BME280_humidity;BME280_pressure;Samples;Min_cycle;Max_cycle;Signal;HPM_P1;HPM_P2
2023/03/23 00:01:49;;;;;;;7.80;4.10;;;24.90;99.90;;;;;;5028209;28;20196;-75
2023/03/23 00:04:21;;;;;;;5.03;3.50;;;24.90;99.90;;;;;;5029750;28;20272;-76
2023/03/23 00:06:52;;;;;;;8.10;3.83;;;25.00;99.90;;;;;;5011647;28;20245;-76
2023/03/23 00:09:24;;;;;;;9.82;4.13;;;25.10;99.90;;;;;;5030652;28;20280;-76
2023/03/23 00:11:56;;;;;;;12.30;4.45;;;25.10;99.90;;;;;;5031401;28;20196;-76
2023/03/23 00:14:30;;;;;;;9.75;5.05;;;25.20;99.90;;;;;;5031656;28;20204;-76
2023/03/23 00:17:02;;;;;;;11.60;4.82;;;25.20;99.90;;;;;;5030689;28;20193;-76
2023/03/23 00:19:34;;;;;;;15.88;6.90;;;25.20;99.90;;;;;;5030725;28;20207;-76
2023/03/23 00:22:06;;;;;;;8.52;4.95;;;25.40;99.90;;;;;;5030603;28;20229;-76
2023/03/23 00:24:37;;;;;;;10.32;4.60;;;25.30;99.90;;;;;;5030595;28;20208;-76
2023/03/23 00:27:08;;;;;;;7.60;4.45;;;25.40;99.90;;;;;;5030998;28;20201;-76
2023/03/23 00:29:42;;;;;;;11.50;4.57;;;25.40;99.90;;;;;;5027702;28;20197;-76
2023/03/23 00:32:17;;;;;;;10.35;4.90;;;25.50;99.90;;;;;;5029541;28;20202;-76
2023/03/23 00:34:49;;;;;;;9.05;5.00;;;25.50;99.90;;;;;;5029870;28;20237;-76
2023/03/23 00:37:20;;;;;;;10.25;4.97;;;25.40;99.90;;;;;;5030957;28;20205;-76
2023/03/23 00:39:51;;;;;;;15.05;5.72;;;25.30;99.90;;;;;;5030274;28;20568;-76
2023/03/23 00:42:22;;;;;;;7.70;4.75;;;25.30;99.90;;;;;;5030129;28;20718;-77
2023/03/23 00:45:00;;;;;;;8.80;5.05;;;25.30;99.90;;;;;;5015182;28;20197;-75
2023/03/23 00:47:35;;;;;;;8.90;4.78;;;25.40;99.90;;;;;;5030971;28;20227;-76
2023/03/23 00:50:07;;;;;;;11.57;5.20;;;25.40;99.90;;;;;;5028784;28;20659;-76
2023/03/23 00:52:38;;;;;;;9.68;4.85;;;25.40;99.90;;;;;;5030136;28;20201;-76
2023/03/23 00:55:10;;;;;;;11.48;5.25;;;25.40;99.90;;;;;;5028121;28;20679;-77
2023/03/23 00:57:41;;;;;;;10.38;4.85;;;25.40;99.90;;;;;;5026149;28;20198;-80
2023/03/23 01:00:16;;;;;;;10.55;4.80;;;25.40;99.90;;;;;;5028307;28;20197;-79
2023/03/23 01:02:47;;;;;;;9.70;4.18;;;25.40;99.90;;;;;;5028937;28;20232;-78
2023/03/23 01:05:18;;;;;;;7.82;4.72;;;25.40;99.90;;;;;;5030640;28;20737;-80
2023/03/23 01:07:50;;;;;;;13.23;5.60;;;25.40;99.90;;;;;;5027710;28;20220;-77
2023/03/23 01:10:21;;;;;;;10.75;5.10;;;25.50;99.90;;;;;;5027837;28;20217;-78
2023/03/23 01:12:52;;;;;;;9.20;4.75;;;25.50;99.90;;;;;;5029811;28;20201;-78
2023/03/23 01:15:25;;;;;;;13.93;8.07;;;25.50;99.90;;;;;;5029471;28;20196;-78
2023/03/23 01:17:57;;;;;;;9.48;5.18;;;25.50;99.90;;;;;;5026282;28;20208;-79
2023/03/23 01:20:28;;;;;;;8.52;4.38;;;25.50;99.90;;;;;;5030146;28;20193;-79
2023/03/23 01:23:00;;;;;;;10.15;4.30;;;25.50;99.90;;;;;;5012839;28;20218;-76
2023/03/23 01:25:33;;;;;;;12.68;4.20;;;25.60;99.90;;;;;;5025961;28;20201;-77
2023/03/23 01:28:04;;;;;;;9.05;4.38;;;25.70;99.90;;;;;;5028451;28;20192;-77
2023/03/23 01:30:37;;;;;;;13.07;4.47;;;25.70;99.90;;;;;;5024446;28;20288;-79
2023/03/23 01:33:08;;;;;;;8.25;3.97;;;25.80;99.90;;;;;;5028120;28;20292;-79
2023/03/23 01:35:42;;;;;;;7.78;4.25;;;25.80;99.90;;;;;;5029428;28;20660;-79
2023/03/23 01:38:13;;;;;;;7.20;3.70;;;25.90;99.90;;;;;;5027420;28;20204;-76
2023/03/23 01:40:44;;;;;;;8.52;4.18;;;25.90;99.90;;;;;;5029537;28;20204;-78
2023/03/23 01:43:18;;;;;;;6.18;3.45;;;25.90;99.90;;;;;;5024411;28;20570;-77
2023/03/23 01:45:51;;;;;;;9.52;4.07;;;25.90;99.90;;;;;;5016499;28;20535;-78
2023/03/23 01:48:26;;;;;;;8.32;3.58;;;25.90;99.90;;;;;;5023187;28;20201;-78
2023/03/23 01:51:01;;;;;;;8.80;3.88;;;26.00;99.90;;;;;;5030103;28;20204;-78
2023/03/23 01:53:37;;;;;;;5.43;3.70;;;26.00;99.90;;;;;;5030779;28;20185;-79
2023/03/23 01:56:11;;;;;;;6.70;3.40;;;26.10;99.90;;;;;;5029087;28;20200;-79
2023/03/23 01:58:43;;;;;;;5.68;3.35;;;26.00;99.90;;;;;;5026433;28;20205;-78
2023/03/23 02:01:18;;;;;;;6.85;3.22;;;26.10;99.90;;;;;;5028552;28;20209;-79
2023/03/23 02:03:50;;;;;;;8.35;4.07;;;26.00;99.90;;;;;;5025029;28;20231;-79
2023/03/23 02:06:21;;;;;;;8.02;3.42;;;26.10;99.90;;;;;;5014370;28;20234;-78
2023/03/23 02:08:55;;;;;;;6.15;3.72;;;26.00;99.90;;;;;;5033382;28;20193;-79
2023/03/23 02:11:26;;;;;;;5.80;3.20;;;25.90;99.90;;;;;;5030340;28;20217;-78
2023/03/23 02:13:57;;;;;;;6.88;3.30;;;25.90;99.90;;;;;;5032766;28;20230;-76
2023/03/23 02:16:43;;;;;;;5.57;3.40;;;25.90;99.90;;;;;;5028719;28;20669;-76
2023/03/23 02:19:41;;;;;;;7.70;3.63;;;26.00;99.90;;;;;;5031668;28;20201;-77
2023/03/23 02:22:50;;;;;;;7.65;3.88;;;25.90;99.90;;;;;;5019037;28;20205;-78
2023/03/23 02:25:54;;;;;;;7.32;3.72;;;25.90;99.90;;;;;;4953779;28;20584;-78
2023/03/23 02:28:54;;;;;;;7.60;3.47;;;25.90;99.90;;;;;;5008900;28;20638;-78
2023/03/23 02:31:50;;;;;;;8.73;4.05;;;25.90;99.90;;;;;;5013659;28;20197;-79
2023/03/23 02:34:30;;;;;;;7.88;3.60;;;26.00;99.90;;;;;;5005037;28;20574;-79
2023/03/23 02:37:04;;;;;;;6.15;3.67;;;26.00;99.90;;;;;;5003851;28;20204;-76
2023/03/23 02:39:41;;;;;;;8.70;4.05;;;26.10;99.90;;;;;;5008282;28;20668;-78
2023/03/23 02:42:14;;;;;;;7.85;3.90;;;26.10;99.90;;;;;;5011929;28;20229;-77
2023/03/23 02:44:48;;;;;;;6.00;3.83;;;26.20;99.90;;;;;;5013730;28;20228;-78
2023/03/23 02:47:22;;;;;;;10.18;3.65;;;26.30;99.90;;;;;;5006111;28;20201;-77
2023/03/23 02:49:58;;;;;;;6.68;3.67;;;26.30;99.90;;;;;;5005647;28;20204;-76
2023/03/23 02:52:33;;;;;;;7.43;3.67;;;26.30;99.90;;;;;;5005993;28;20201;-77
2023/03/23 02:55:05;;;;;;;12.32;3.80;;;26.30;99.90;;;;;;5006520;28;20196;-79
2023/03/23 02:57:37;;;;;;;9.32;3.67;;;26.40;99.90;;;;;;5010840;28;20664;-78
2023/03/23 03:02:58;;;;;;;8.95;4.03;;;26.50;99.90;;;;;;5002155;28;20287;-78
2023/03/23 03:05:42;;;;;;;9.77;4.28;;;26.70;99.90;;;;;;5005174;28;20668;-80
2023/03/23 03:08:25;;;;;;;9.60;3.80;;;26.80;99.90;;;;;;5007705;28;20275;-80
2023/03/23 03:11:01;;;;;;;7.57;4.10;;;26.90;99.90;;;;;;5007081;28;20228;-78
2023/03/23 03:13:43;;;;;;;9.40;4.05;;;27.00;99.90;;;;;;5007332;28;20235;-77
2023/03/23 03:16:26;;;;;;;7.43;4.30;;;27.10;99.90;;;;;;5006588;28;20664;-77
2023/03/23 03:19:01;;;;;;;7.68;4.05;;;27.00;99.90;;;;;;5009708;28;20205;-78
2023/03/23 03:21:38;;;;;;;7.00;3.70;;;27.20;99.90;;;;;;5007571;28;20209;-79
2023/03/23 03:24:11;;;;;;;5.60;3.20;;;27.60;99.90;;;;;;5006217;28;20325;-77
2023/03/23 03:26:47;;;;;;;7.55;3.50;;;27.70;99.90;;;;;;5006201;28;20275;-76
2023/03/23 03:29:19;;;;;;;5.80;3.20;;;27.40;99.90;;;;;;5008357;28;20980;-77
2023/03/23 03:31:55;;;;;;;5.82;3.10;;;27.40;99.90;;;;;;5013803;28;20584;-77
2023/03/23 03:34:26;;;;;;;6.95;3.42;;;27.30;99.90;;;;;;5007671;28;20201;-77
2023/03/23 03:37:04;;;;;;;5.65;3.80;;;27.20;99.90;;;;;;5005882;28;20212;-77
2023/03/23 03:39:38;;;;;;;5.55;2.80;;;27.10;99.90;;;;;;5005972;28;20197;-77
2023/03/23 03:42:10;;;;;;;4.45;2.90;;;27.00;99.90;;;;;;5008038;28;20204;-77
2023/03/23 03:44:41;;;;;;;6.50;3.20;;;26.80;99.90;;;;;;5009923;28;20250;-78
2023/03/23 03:47:12;;;;;;;7.00;3.33;;;26.90;99.90;;;;;;5003962;28;20225;-79
2023/03/23 03:49:45;;;;;;;10.38;4.30;;;26.80;99.90;;;;;;5006764;28;20213;-77
2023/03/23 03:52:18;;;;;;;9.23;3.83;;;26.80;99.90;;;;;;5007136;28;20220;-78
2023/03/23 03:54:49;;;;;;;6.75;3.35;;;26.70;99.90;;;;;;5013849;28;20197;-78
2023/03/23 03:57:20;;;;;;;7.13;3.90;;;26.70;99.90;;;;;;5031579;28;20563;-78
2023/03/23 03:59:52;;;;;;;14.00;4.25;;;26.60;99.90;;;;;;5032203;28;20617;-77
2023/03/23 04:02:23;;;;;;;8.60;3.60;;;26.60;99.90;;;;;;5032840;28;20201;-78
2023/03/23 04:04:55;;;;;;;10.45;4.07;;;26.50;99.90;;;;;;5028480;28;20232;-77
2023/03/23 04:07:29;;;;;;;5.78;3.35;;;26.40;99.90;;;;;;5029232;28;20226;-76
2023/03/23 04:10:00;;;;;;;9.95;4.03;;;26.40;99.90;;;;;;5014908;28;20208;-78
2023/03/23 04:12:31;;;;;;;6.90;3.47;;;26.40;99.90;;;;;;5023637;28;20217;-77
2023/03/23 04:15:02;;;;;;;8.07;3.40;;;26.50;99.90;;;;;;5038379;28;20290;-77
2023/03/23 04:17:33;;;;;;;7.45;3.55;;;26.40;99.90;;;;;;5029913;28;20228;-78
2023/03/23 04:20:15;;;;;;;6.07;3.20;;;26.50;99.90;;;;;;5023402;28;20200;-76
2023/03/23 04:22:48;;;;;;;5.93;2.95;;;26.50;99.90;;;;;;5019097;28;20576;-78
2023/03/23 04:25:22;;;;;;;7.75;3.30;;;26.40;99.90;;;;;;5031214;28;20646;-77
2023/03/23 04:27:54;;;;;;;7.65;3.30;;;26.40;99.90;;;;;;5032965;28;20297;-77
2023/03/23 04:30:27;;;;;;;9.98;3.63;;;26.30;99.90;;;;;;5028524;28;20205;-79
2023/03/23 04:33:01;;;;;;;6.93;3.70;;;26.30;99.90;;;;;;5026658;28;20201;-78
2023/03/23 04:35:32;;;;;;;8.55;3.28;;;26.30;99.90;;;;;;5032360;28;20664;-79
2023/03/23 04:38:05;;;;;;;5.28;2.85;;;26.40;99.90;;;;;;5030896;28;20197;-77
2023/03/23 04:40:38;;;;;;;5.75;2.95;;;26.50;99.90;;;;;;5030437;28;20198;-76
2023/03/23 04:43:12;;;;;;;7.38;2.92;;;26.50;99.90;;;;;;5013088;28;20572;-78
2023/03/23 04:45:45;;;;;;;7.93;2.70;;;26.60;99.90;;;;;;5012732;28;20232;-77
2023/03/23 04:48:16;;;;;;;6.63;2.80;;;26.70;99.90;;;;;;5012552;28;20225;-78
2023/03/23 04:50:48;;;;;;;6.72;2.83;;;26.80;99.90;;;;;;5019913;28;20197;-78
2023/03/23 04:53:21;;;;;;;9.00;2.92;;;26.70;99.90;;;;;;5032134;28;20201;-77
2023/03/23 04:55:54;;;;;;;5.10;2.50;;;26.60;99.90;;;;;;5033436;28;20287;-75
2023/03/23 04:58:25;;;;;;;3.55;2.50;;;26.60;99.90;;;;;;5041522;28;20227;-76
2023/03/23 05:00:56;;;;;;;4.38;2.50;;;26.60;99.90;;;;;;5031130;28;20208;-77
2023/03/23 05:03:28;;;;;;;4.78;2.40;;;26.40;99.90;;;;;;5028821;28;20201;-79
2023/03/23 05:05:59;;;;;;;9.57;2.75;;;26.30;99.90;;;;;;5028124;28;20233;-78
2023/03/23 05:08:33;;;;;;;5.13;2.42;;;26.30;99.90;;;;;;5020321;28;20193;-77
2023/03/23 05:11:04;;;;;;;5.90;2.38;;;26.20;99.90;;;;;;5026920;28;20723;-77
2023/03/23 05:13:36;;;;;;;9.70;2.95;;;26.10;99.90;;;;;;5030047;28;20200;-76
2023/03/23 05:16:10;;;;;;;3.50;2.38;;;26.10;99.90;;;;;;5030619;28;20200;-76
2023/03/23 05:18:41;;;;;;;8.50;2.50;;;26.10;99.90;;;;;;5028678;28;20197;-77
2023/03/23 05:21:12;;;;;;;9.70;2.70;;;26.00;99.90;;;;;;5028873;28;20208;-78
2023/03/23 05:23:47;;;;;;;4.82;2.70;;;25.90;99.90;;;;;;5024229;28;20251;-79
2023/03/23 05:26:18;;;;;;;7.40;3.00;;;25.80;99.90;;;;;;5026175;28;20211;-77
2023/03/23 05:28:53;;;;;;;7.20;2.90;;;25.70;99.90;;;;;;5029021;28;20676;-77
2023/03/23 05:31:24;;;;;;;7.38;2.50;;;25.60;99.90;;;;;;5026070;28;20208;-78
2023/03/23 05:33:56;;;;;;;4.78;2.70;;;25.50;99.90;;;;;;5020436;28;20260;-78
2023/03/23 05:36:27;;;;;;;5.65;2.17;;;25.50;99.90;;;;;;5024792;28;20289;-77
2023/03/23 05:39:03;;;;;;;5.22;2.50;;;25.50;99.90;;;;;;5026229;28;20201;-78
2023/03/23 05:41:34;;;;;;;6.50;2.45;;;25.40;99.90;;;;;;5030006;28;20564;-77
2023/03/23 05:44:05;;;;;;;5.95;2.40;;;25.40;99.90;;;;;;5029794;28;20695;-77
2023/03/23 05:46:36;;;;;;;4.75;2.47;;;25.30;99.90;;;;;;5030529;28;20201;-77
2023/03/23 05:49:08;;;;;;;3.67;2.03;;;25.30;99.90;;;;;;5035350;28;20208;-78
2023/03/23 05:51:39;;;;;;;4.30;2.30;;;25.20;99.90;;;;;;5041183;28;20204;-78
2023/03/23 05:54:13;;;;;;;4.57;2.30;;;25.20;99.90;;;;;;5018807;28;20196;-77
2023/03/23 05:56:44;;;;;;;8.00;2.80;;;25.20;99.90;;;;;;5034985;28;20694;-78
2023/03/23 05:59:15;;;;;;;5.55;2.55;;;25.10;99.90;;;;;;5035848;28;20197;-77
2023/03/23 06:01:46;;;;;;;4.75;2.58;;;25.10;99.90;;;;;;5035622;28;20193;-77
2023/03/23 06:04:17;;;;;;;3.55;2.25;;;25.00;99.90;;;;;;5035307;28;20221;-77
2023/03/23 06:06:49;;;;;;;5.45;2.45;;;24.90;99.90;;;;;;5026600;28;20703;-77
2023/03/23 06:09:23;;;;;;;3.92;1.95;;;24.70;99.90;;;;;;5024576;28;20283;-76
2023/03/23 06:11:54;;;;;;;4.70;1.73;;;24.60;99.90;;;;;;5036222;28;20227;-76
2023/03/23 06:14:26;;;;;;;3.95;1.80;;;24.50;99.90;;;;;;5036663;28;20319;-78
2023/03/23 06:16:59;;;;;;;4.18;1.80;;;24.40;99.90;;;;;;5039454;28;20231;-77
2023/03/23 06:19:31;;;;;;;3.80;1.90;;;24.40;99.90;;;;;;5031571;28;20259;-78
2023/03/23 06:22:02;;;;;;;3.83;1.80;;;24.30;99.90;;;;;;5008736;28;20228;-76
2023/03/23 06:24:35;;;;;;;4.55;2.00;;;24.30;99.90;;;;;;5020990;28;20225;-79
2023/03/23 06:27:07;;;;;;;8.25;2.05;;;24.30;99.90;;;;;;5028026;28;20197;-77
2023/03/23 06:29:39;;;;;;;2.92;1.67;;;24.30;99.90;;;;;;5037147;28;20221;-78
2023/03/23 06:32:13;;;;;;;7.97;2.88;;;24.30;99.90;;;;;;5037682;28;20280;-79
2023/03/23 06:34:46;;;;;;;2.83;1.90;;;24.30;99.90;;;;;;5036759;28;20213;-77
2023/03/23 06:37:17;;;;;;;3.97;1.73;;;24.20;99.90;;;;;;5034974;28;20197;-77
2023/03/23 06:39:51;;;;;;;3.35;1.92;;;24.10;99.90;;;;;;5038150;28;20208;-78
2023/03/23 06:42:26;;;;;;;6.15;2.33;;;24.10;99.90;;;;;;5030973;28;20208;-78
2023/03/23 06:44:58;;;;;;;5.15;2.10;;;24.10;99.90;;;;;;5012824;28;20225;-77
2023/03/23 06:47:30;;;;;;;4.07;2.10;;;24.10;99.90;;;;;;5017586;28;20601;-79
2023/03/23 06:50:01;;;;;;;7.63;2.08;;;24.10;99.90;;;;;;5024612;28;20225;-78
2023/03/23 06:52:32;;;;;;;6.20;2.10;;;24.00;99.90;;;;;;5035399;28;20225;-77
2023/03/23 06:55:08;;;;;;;5.13;1.70;;;24.00;99.90;;;;;;5036224;28;20205;-77
2023/03/23 06:57:39;;;;;;;4.43;1.83;;;23.90;99.90;;;;;;5019493;28;20251;-78
2023/03/23 07:00:13;;;;;;;8.13;3.40;;;23.90;99.90;;;;;;5034677;28;20198;-78
2023/03/23 07:02:45;;;;;;;8.60;3.05;;;23.80;99.90;;;;;;5032740;28;20190;-78
2023/03/23 07:05:16;;;;;;;5.30;2.10;;;23.80;99.90;;;;;;5033658;28;20673;-78
2023/03/23 07:07:47;;;;;;;7.82;2.13;;;23.70;99.90;;;;;;5017206;28;20248;-77
2023/03/23 07:10:23;;;;;;;6.18;2.60;;;23.70;99.90;;;;;;5004586;28;20201;-77
2023/03/23 07:12:54;;;;;;;4.63;1.98;;;23.60;99.90;;;;;;5006406;28;20197;-77
2023/03/23 07:15:26;;;;;;;5.93;2.30;;;23.60;99.90;;;;;;5002733;28;20213;-76
2023/03/23 07:17:58;;;;;;;8.73;2.53;;;23.60;99.90;;;;;;5007587;28;21287;-78
2023/03/23 07:20:31;;;;;;;6.95;2.40;;;23.50;99.90;;;;;;5020168;28;20657;-78
2023/03/23 07:23:04;;;;;;;5.80;2.28;;;23.30;99.90;;;;;;5028526;28;20193;-77
2023/03/23 07:25:38;;;;;;;5.70;2.55;;;23.20;99.90;;;;;;5028864;28;20279;-78
2023/03/23 07:28:09;;;;;;;5.72;2.10;;;23.20;99.90;;;;;;5030954;28;20213;-76
2023/03/23 07:30:40;;;;;;;4.60;2.20;;;23.20;99.90;;;;;;5030353;28;20228;-78
2023/03/23 07:33:12;;;;;;;5.93;2.60;;;23.20;99.90;;;;;;5033215;28;20197;-78
2023/03/23 07:35:43;;;;;;;3.85;2.00;;;23.20;99.90;;;;;;5018413;28;20201;-78
2023/03/23 07:38:14;;;;;;;4.80;2.30;;;23.20;99.90;;;;;;5030521;28;20216;-78
2023/03/23 07:40:47;;;;;;;7.18;2.10;;;23.10;99.90;;;;;;5028785;28;20193;-77
2023/03/23 07:43:19;;;;;;;4.32;1.70;;;23.10;99.90;;;;;;5033158;28;20202;-78
2023/03/23 07:45:50;;;;;;;7.22;2.10;;;23.10;99.90;;;;;;5033102;28;20730;-78
2023/03/23 07:48:21;;;;;;;6.07;2.30;;;23.00;99.90;;;;;;5032188;28;20456;-78
2023/03/23 07:50:52;;;;;;;4.82;1.77;;;23.00;99.90;;;;;;5031942;28;20205;-79
2023/03/23 07:53:23;;;;;;;6.95;2.00;;;23.00;99.90;;;;;;5032651;28;20202;-78
2023/03/23 07:55:57;;;;;;;5.78;1.73;;;22.90;99.90;;;;;;5036348;28;20297;-78
2023/03/23 07:58:28;;;;;;;3.83;1.92;;;22.90;99.90;;;;;;5033652;28;20189;-77
2023/03/23 08:01:00;;;;;;;5.05;1.70;;;22.90;99.90;;;;;;5016874;28;20497;-77
2023/03/23 08:03:31;;;;;;;6.28;1.88;;;22.90;99.90;;;;;;5012607;28;20213;-78
2023/03/23 08:06:03;;;;;;;3.38;1.80;;;22.90;99.90;;;;;;5011920;28;20225;-77
2023/03/23 08:08:35;;;;;;;4.32;1.90;;;22.90;99.90;;;;;;5013738;28;20190;-78
2023/03/23 08:11:08;;;;;;;4.28;1.67;;;22.80;99.90;;;;;;5018094;28;20197;-78
2023/03/23 08:13:39;;;;;;;4.57;2.20;;;22.80;99.90;;;;;;5022666;28;20198;-77
2023/03/23 08:16:11;;;;;;;3.38;1.70;;;22.80;99.90;;;;;;5031096;28;20220;-78
2023/03/23 08:18:42;;;;;;;4.53;1.70;;;22.80;99.90;;;;;;5030453;28;20228;-78
2023/03/23 08:21:13;;;;;;;5.90;2.20;;;22.70;99.90;;;;;;5029245;28;20204;-77
2023/03/23 08:23:47;;;;;;;3.92;1.63;;;22.70;99.90;;;;;;5032220;28;20291;-78
2023/03/23 08:26:20;;;;;;;3.95;1.80;;;22.80;99.90;;;;;;5031350;28;20239;-77
2023/03/23 08:28:55;;;;;;;3.42;1.70;;;22.80;99.90;;;;;;5030621;28;20208;-77
2023/03/23 08:31:29;;;;;;;3.25;1.90;;;22.80;99.90;;;;;;5032181;28;20227;-77
2023/03/23 08:34:00;;;;;;;3.72;2.03;;;22.80;99.90;;;;;;5033189;28;20202;-78
2023/03/23 08:36:31;;;;;;;5.65;2.53;;;22.80;99.90;;;;;;5033629;28;20230;-78
2023/03/23 08:39:04;;;;;;;4.38;2.30;;;22.80;99.90;;;;;;5040366;28;20225;-77
2023/03/23 08:41:38;;;;;;;5.38;2.35;;;22.80;99.90;;;;;;5026391;28;20200;-78
2023/03/23 08:44:09;;;;;;;5.65;2.25;;;22.80;99.90;;;;;;5032579;28;20233;-77
2023/03/23 08:46:40;;;;;;;4.57;2.13;;;22.70;99.90;;;;;;5031642;28;20229;-78
2023/03/23 08:49:11;;;;;;;6.57;2.63;;;22.70;99.90;;;;;;5030826;28;20212;-77
2023/03/23 08:51:43;;;;;;;4.93;2.38;;;22.60;99.90;;;;;;5030960;28;20203;-77
2023/03/23 08:54:14;;;;;;;5.55;2.33;;;22.60;99.90;;;;;;5028315;28;20202;-81
2023/03/23 08:56:47;;;;;;;4.93;2.20;;;22.60;99.90;;;;;;5028711;28;20660;-77
2023/03/23 08:59:18;;;;;;;3.65;2.17;;;22.60;99.90;;;;;;5028851;28;20208;-78
2023/03/23 09:01:49;;;;;;;3.47;1.75;;;22.60;99.90;;;;;;5027121;28;20652;-78
2023/03/23 09:04:21;;;;;;;3.22;1.50;;;22.60;99.90;;;;;;5030245;28;20284;-76
2023/03/23 09:06:52;;;;;;;3.20;1.40;;;22.50;99.90;;;;;;5030009;28;20610;-78
2023/03/23 09:09:23;;;;;;;2.25;1.30;;;22.50;99.90;;;;;;5029763;28;20201;-77
2023/03/23 09:11:57;;;;;;;1.88;1.20;;;22.40;99.90;;;;;;5020678;28;20193;-78
2023/03/23 09:14:28;;;;;;;1.88;1.20;;;22.40;99.90;;;;;;5023658;28;20193;-78
2023/03/23 09:16:59;;;;;;;2.20;1.30;;;22.40;99.90;;;;;;5029619;28;20197;-78
2023/03/23 09:19:32;;;;;;;3.42;1.30;;;22.40;99.90;;;;;;5027805;28;20217;-78
2023/03/23 09:22:03;;;;;;;2.05;1.02;;;22.50;99.90;;;;;;5030857;28;20201;-75
2023/03/23 09:24:35;;;;;;;1.98;1.00;;;22.40;99.90;;;;;;5030352;28;20204;-78
2023/03/23 09:27:08;;;;;;;2.80;1.10;;;22.40;99.90;;;;;;5030541;28;20259;-78
2023/03/23 09:29:40;;;;;;;1.30;0.93;;;22.40;99.90;;;;;;5028407;28;20568;-79
2023/03/23 09:32:13;;;;;;;3.13;1.05;;;22.40;99.90;;;;;;5032214;28;20569;-78
2023/03/23 09:34:44;;;;;;;2.35;1.20;;;22.40;99.90;;;;;;5029190;28;20197;-79
2023/03/23 09:37:16;;;;;;;2.33;1.33;;;22.40;99.90;;;;;;5030793;28;20258;-78
2023/03/23 09:39:48;;;;;;;2.15;1.20;;;22.30;99.90;;;;;;5029729;28;20292;-78
2023/03/23 09:42:36;;;;;;;1.40;0.90;;;22.40;99.90;;;;;;5029861;28;20574;-79
2023/03/23 09:45:18;;;;;;;1.15;0.93;;;22.30;99.90;;;;;;5017486;28;20197;-78
2023/03/23 09:48:03;;;;;;;1.80;0.90;;;22.20;99.90;;;;;;5022888;28;20193;-79
2023/03/23 09:50:37;;;;;;;2.35;1.00;;;22.20;99.90;;;;;;5019660;28;20197;-78
2023/03/23 09:53:15;;;;;;;3.05;1.08;;;22.30;99.90;;;;;;5029666;28;20656;-79
2023/03/23 09:55:48;;;;;;;1.20;0.80;;;22.30;99.90;;;;;;5029982;28;20597;-79
2023/03/23 09:58:26;;;;;;;1.90;0.98;;;22.30;99.90;;;;;;5028166;28;20201;-77
2023/03/23 10:01:02;;;;;;;1.42;0.88;;;22.30;99.90;;;;;;5029841;28;20200;-80
2023/03/23 10:03:39;;;;;;;1.63;0.80;;;22.20;99.90;;;;;;5021643;28;20224;-79
2023/03/23 10:06:12;;;;;;;2.28;0.80;;;22.20;99.90;;;;;;5024939;28;20291;-79
2023/03/23 10:08:48;;;;;;;1.83;1.00;;;22.30;99.90;;;;;;5029461;28;20571;-77
2023/03/23 10:11:27;;;;;;;1.38;0.80;;;22.20;99.90;;;;;;5028440;28;20201;-78
2023/03/23 10:14:15;;;;;;;1.55;0.95;;;22.30;99.90;;;;;;5028076;28;20212;-78
2023/03/23 10:17:01;;;;;;;1.42;1.00;;;22.20;99.90;;;;;;5026330;28;20201;-78
2023/03/23 10:19:37;;;;;;;1.92;1.00;;;22.30;99.90;;;;;;5025516;28;20284;-78
2023/03/23 10:22:12;;;;;;;1.60;1.25;;;22.20;99.90;;;;;;5031915;28;20193;-76
2023/03/23 10:24:54;;;;;;;1.25;0.90;;;22.20;99.90;;;;;;5034865;28;20694;-78
2023/03/23 10:27:32;;;;;;;0.88;0.70;;;22.20;99.90;;;;;;5012610;28;20213;-78
2023/03/23 10:30:17;;;;;;;1.95;1.00;;;22.20;99.90;;;;;;5029903;28;20724;-79
2023/03/23 10:32:53;;;;;;;1.20;0.98;;;22.10;99.90;;;;;;5029640;28;20208;-79
2023/03/23 10:35:28;;;;;;;2.10;1.00;;;22.10;99.90;;;;;;5033109;28;20208;-78
2023/03/23 10:38:02;;;;;;;2.08;1.02;;;22.10;99.90;;;;;;5031830;28;20204;-79
2023/03/23 10:40:34;;;;;;;1.00;0.80;;;22.20;99.90;;;;;;5027920;28;20192;-79
2023/03/23 10:43:06;;;;;;;1.40;0.95;;;22.20;99.90;;;;;;5033577;28;20198;-79
2023/03/23 10:45:39;;;;;;;2.30;1.10;;;22.20;99.90;;;;;;5032592;28;20197;-78
2023/03/23 10:48:15;;;;;;;1.77;1.00;;;22.30;99.90;;;;;;5031358;28;20212;-80
2023/03/23 10:50:51;;;;;;;1.33;1.00;;;22.30;99.90;;;;;;5030815;28;20201;-80
2023/03/23 10:53:25;;;;;;;3.33;1.00;;;22.30;99.90;;;;;;5033092;28;20595;-79
2023/03/23 10:55:56;;;;;;;1.35;1.10;;;22.20;99.90;;;;;;5032690;28;20562;-79
2023/03/23 10:58:31;;;;;;;1.75;0.98;;;22.20;99.90;;;;;;5035840;28;20256;-79
2023/03/23 11:01:07;;;;;;;2.85;1.13;;;22.20;99.90;;;;;;5047709;28;20231;-79
2023/03/23 11:03:44;;;;;;;1.83;1.10;;;22.20;99.90;;;;;;5043013;28;20216;-77
2023/03/23 11:06:22;;;;;;;1.77;0.85;;;22.20;99.90;;;;;;5038938;28;20684;-79
2023/03/23 11:08:55;;;;;;;1.63;0.90;;;22.30;99.90;;;;;;5040039;28;20274;-78
2023/03/23 11:11:30;;;;;;;2.38;1.17;;;22.30;99.90;;;;;;5048222;28;20197;-78
2023/03/23 11:14:03;;;;;;;3.17;1.05;;;22.30;99.90;;;;;;5038570;28;20197;-79
2023/03/23 11:16:37;;;;;;;1.42;1.00;;;22.30;99.90;;;;;;5027765;28;20206;-78
2023/03/23 11:19:20;;;;;;;1.55;1.10;;;22.30;99.90;;;;;;5030025;28;20193;-76
2023/03/23 11:21:53;;;;;;;1.05;0.95;;;22.30;99.90;;;;;;5033981;28;20197;-74
2023/03/23 11:24:33;;;;;;;2.17;1.20;;;22.30;99.90;;;;;;5038740;28;20201;-79
2023/03/23 11:27:06;;;;;;;2.00;1.17;;;22.30;99.90;;;;;;5023469;28;20251;-79
2023/03/23 11:29:38;;;;;;;2.08;1.17;;;22.20;99.90;;;;;;5039719;28;20197;-78
2023/03/23 11:32:21;;;;;;;1.90;1.20;;;22.10;99.90;;;;;;5039066;28;20204;-79
2023/03/23 11:34:58;;;;;;;2.45;1.20;;;22.10;99.90;;;;;;5035005;28;20675;-77
2023/03/23 11:37:37;;;;;;;4.00;1.40;;;22.10;99.90;;;;;;5037738;28;20201;-78
2023/03/23 11:40:19;;;;;;;2.65;1.42;;;22.00;99.90;;;;;;5034784;28;20243;-77
2023/03/23 11:42:52;;;;;;;1.50;1.30;;;22.00;99.90;;;;;;5039939;28;20199;-78
2023/03/23 11:45:35;;;;;;;3.03;1.40;;;22.00;99.90;;;;;;5039004;28;20506;-77
2023/03/23 11:48:17;;;;;;;2.55;1.30;;;22.00;99.90;;;;;;5033754;28;20218;-76
2023/03/23 11:50:58;;;;;;;2.42;1.30;;;21.90;99.90;;;;;;5028345;28;20701;-77
2023/03/23 11:53:41;;;;;;;2.88;1.20;;;21.90;99.90;;;;;;5040191;28;20221;-77
2023/03/23 11:56:23;;;;;;;1.63;1.10;;;21.90;99.90;;;;;;5036898;28;20260;-79
2023/03/23 11:58:55;;;;;;;4.07;1.50;;;21.90;99.90;;;;;;5035209;28;20193;-79
2023/03/23 12:01:40;;;;;;;2.13;1.40;;;21.80;99.90;;;;;;5039459;28;20200;-79
2023/03/23 12:04:44;;;;;;;2.97;1.33;;;21.80;99.90;;;;;;5020334;28;20205;-78
2023/03/23 12:07:39;;;;;;;1.98;1.25;;;21.80;99.90;;;;;;5030965;28;20573;-76
2023/03/23 12:10:27;;;;;;;2.97;1.63;;;21.80;99.90;;;;;;5039191;28;20197;-78
2023/03/23 12:13:19;;;;;;;3.63;1.60;;;21.90;99.90;;;;;;5032503;28;20212;-80
2023/03/23 12:15:58;;;;;;;5.45;1.60;;;21.90;99.90;;;;;;5032610;28;20194;-77
2023/03/23 12:18:43;;;;;;;2.33;1.38;;;21.80;99.90;;;;;;5037124;28;20207;-77
2023/03/23 12:21:21;;;;;;;2.67;1.58;;;21.80;99.90;;;;;;5034874;28;20691;-74
2023/03/23 12:24:01;;;;;;;2.03;1.40;;;21.90;99.90;;;;;;5037427;28;20197;-80
2023/03/23 12:26:38;;;;;;;3.15;1.85;;;21.90;99.90;;;;;;5023204;28;20232;-78
2023/03/23 12:29:20;;;;;;;3.40;1.83;;;21.90;99.90;;;;;;5036883;28;20219;-78
2023/03/23 12:32:12;;;;;;;4.60;2.00;;;21.90;99.90;;;;;;5034530;28;20208;-80
2023/03/23 12:34:49;;;;;;;4.25;2.22;;;21.90;99.90;;;;;;5027851;28;20193;-78
2023/03/23 12:37:35;;;;;;;4.00;2.15;;;21.90;99.90;;;;;;5039747;28;20197;-78
2023/03/23 12:40:47;;;;;;;4.05;2.35;;;21.80;99.90;;;;;;5030493;28;20207;-78
2023/03/23 12:43:27;;;;;;;3.42;2.28;;;21.70;99.90;;;;;;5018447;28;20209;-78
2023/03/23 12:46:13;;;;;;;2.97;2.08;;;21.70;99.90;;;;;;5031356;28;20201;-79
2023/03/23 12:48:54;;;;;;;3.22;2.22;;;21.70;99.90;;;;;;5029800;28;20212;-78
2023/03/23 12:51:30;;;;;;;4.63;2.35;;;21.70;99.90;;;;;;5014263;28;20198;-78
2023/03/23 12:54:08;;;;;;;2.38;1.90;;;21.70;99.90;;;;;;5031276;28;20197;-79
2023/03/23 12:56:46;;;;;;;3.05;2.13;;;21.60;99.90;;;;;;5036915;28;20201;-77
2023/03/23 12:59:28;;;;;;;4.00;2.25;;;21.60;99.90;;;;;;5034490;28;20200;-78
2023/03/23 13:02:06;;;;;;;4.10;2.35;;;21.60;99.90;;;;;;5033121;28;20201;-77
2023/03/23 13:04:41;;;;;;;3.38;2.08;;;21.60;99.90;;;;;;5028445;28;20186;-78
2023/03/23 13:07:19;;;;;;;4.55;2.08;;;21.60;99.90;;;;;;5033042;28;20232;-77
2023/03/23 13:09:57;;;;;;;2.25;1.88;;;21.60;99.90;;;;;;5037070;28;20363;-78
2023/03/23 13:12:34;;;;;;;4.90;2.03;;;21.70;99.90;;;;;;5036480;28;20209;-77
2023/03/23 13:15:21;;;;;;;4.15;2.30;;;21.70;99.90;;;;;;5021023;28;20208;-78
2023/03/23 13:17:58;;;;;;;3.22;2.30;;;21.70;99.90;;;;;;5031224;28;20204;-77
2023/03/23 13:20:56;;;;;;;3.95;2.00;;;21.80;99.90;;;;;;5035570;28;20308;-73
2023/03/23 13:23:28;;;;;;;5.00;2.40;;;21.70;99.90;;;;;;5029366;28;20201;-78
2023/03/23 13:26:03;;;;;;;3.70;2.45;;;21.80;99.90;;;;;;5035554;28;20216;-77
2023/03/23 13:28:52;;;;;;;6.70;2.70;;;21.80;99.90;;;;;;5029818;28;20220;-76